Time;durP1;ratioP1;P1;durP2;ratioP2;P2;SDS_P1;SDS_P2;PMS_P1;PMS_P2;Temp;Humidity;BMP_temperature;BMP_pressure;BME280_temperature;BME280_humidity;BME280_pressure;Samples;Min_cycle;Max_cycle;Signal;HPM_P1;HPM_P2
2023/03/10 00:00:38;;;;;;;7.32;1.80;;;;;;;;;;4929992;28;20058;-63
2023/03/10 00:03:21;;;;;;;7.10;1.77;;;;;;;;;;4930416;28;20063;-63
2023/03/10 00:05:48;;;;;;;7.00;1.55;;;;;;;;;;4927566;28;20059;-63
2023/03/10 00:08:14;;;;;;;7.10;1.50;;;;;;;;;;4929621;28;20074;-64
2023/03/10 00:10:40;;;;;;;6.95;1.98;;;;;;;;;;4930717;28;20059;-62
2023/03/10 00:13:06;;;;;;;7.68;1.70;;;;;;;;;;4913213;28;20077;-62
2023/03/10 00:15:33;;;;;;;4.18;1.30;;;;;;;;;;4929451;28;20269;-65
2023/03/10 00:17:59;;;;;;;6.63;1.48;;;;;;;;;;4936103;28;20414;-63
2023/03/10 00:20:25;;;;;;;5.72;1.73;;;;;;;;;;4931547;28;20115;-65
2023/03/10 00:22:52;;;;;;;6.70;1.58;;;;;;;;;;4915555;28;20059;-62
2023/03/10 00:25:18;;;;;;;6.97;1.27;;;;;;;;;;4929120;28;20681;-63
2023/03/10 00:27:44;;;;;;;4.82;1.35;;;;;;;;;;4932596;28;20166;-64
2023/03/10 00:30:11;;;;;;;5.60;1.48;;;;;;;;;;4933781;28;20043;-66
2023/03/10 00:32:37;;;;;;;11.18;2.20;;;;;;;;;;4927227;28;20413;-65
2023/03/10 00:35:04;;;;;;;5.85;1.50;;;;;;;;;;4930083;28;20098;-62
2023/03/10 00:37:30;;;;;;;6.85;1.50;;;;;;;;;;4932595;28;21881;-61
2023/03/10 00:39:57;;;;;;;5.15;1.63;;;;;;;;;;4933971;28;20047;-63
2023/03/10 00:42:23;;;;;;;4.47;1.60;;;;;;;;;;4929248;28;20063;-65
2023/03/10 00:44:51;;;;;;;9.85;2.00;;;;;;;;;;4929700;28;20051;-63
2023/03/10 00:47:16;;;;;;;8.85;1.92;;;;;;;;;;4927504;28;20062;-61
2023/03/10 00:49:42;;;;;;;6.22;1.90;;;;;;;;;;4933865;28;20415;-62
2023/03/10 00:52:08;;;;;;;7.43;1.38;;;;;;;;;;4931448;28;20078;-63
2023/03/10 00:54:38;;;;;;;5.53;1.40;;;;;;;;;;4927406;28;20059;-61
2023/03/10 00:57:05;;;;;;;11.43;1.75;;;;;;;;;;4928496;28;20534;-63
2023/03/10 00:59:31;;;;;;;5.78;1.40;;;;;;;;;;4930654;28;20047;-64
2023/03/10 01:01:57;;;;;;;6.70;1.60;;;;;;;;;;4930725;28;20109;-63
2023/03/10 01:04:23;;;;;;;10.02;1.70;;;;;;;;;;4930403;28;20508;-64
2023/03/10 01:06:49;;;;;;;10.60;1.48;;;;;;;;;;4927399;28;21724;-62
2023/03/10 01:09:16;;;;;;;6.95;1.88;;;;;;;;;;4928913;28;20148;-65
2023/03/10 01:11:43;;;;;;;10.82;1.90;;;;;;;;;;4929809;28;20185;-61
2023/03/10 01:14:12;;;;;;;7.25;1.70;;;;;;;;;;4929764;28;20414;-61
2023/03/10 01:16:38;;;;;;;5.07;1.42;;;;;;;;;;4927087;28;20076;-62
2023/03/10 01:19:04;;;;;;;9.30;1.77;;;;;;;;;;4929964;28;20054;-64
2023/03/10 01:21:33;;;;;;;10.57;1.55;;;;;;;;;;4933497;28;20055;-64
2023/03/10 01:24:00;;;;;;;7.65;1.80;;;;;;;;;;4933424;28;20062;-61
2023/03/10 01:26:26;;;;;;;7.55;1.67;;;;;;;;;;4931010;28;20055;-63
2023/03/10 01:28:52;;;;;;;6.93;1.67;;;;;;;;;;4927643;28;20063;-63
2023/03/10 01:31:18;;;;;;;6.53;2.03;;;;;;;;;;4928516;28;20051;-64
2023/03/10 01:33:47;;;;;;;6.25;1.70;;;;;;;;;;4926742;28;20134;-63
2023/03/10 01:36:24;;;;;;;7.47;1.55;;;;;;;;;;4929558;28;20062;-64
2023/03/10 01:38:52;;;;;;;8.25;1.83;;;;;;;;;;4929965;28;20075;-61
2023/03/10 01:41:18;;;;;;;5.57;1.42;;;;;;;;;;4931680;28;20423;-62
2023/03/10 01:43:50;;;;;;;7.32;1.63;;;;;;;;;;4929015;28;20079;-63
2023/03/10 01:46:45;;;;;;;10.20;1.88;;;;;;;;;;4930358;28;20044;-62
2023/03/10 01:49:20;;;;;;;8.07;1.52;;;;;;;;;;4934527;28;20083;-62
2023/03/10 01:52:15;;;;;;;5.53;1.77;;;;;;;;;;4928979;28;20070;-63
2023/03/10 01:54:55;;;;;;;7.07;1.55;;;;;;;;;;4926321;28;20059;-61
2023/03/10 01:57:25;;;;;;;9.95;1.88;;;;;;;;;;4935403;28;20051;-61
2023/03/10 01:59:53;;;;;;;6.82;1.70;;;;;;;;;;4936306;28;20577;-63
2023/03/10 02:02:20;;;;;;;8.13;1.63;;;;;;;;;;4933873;28;20058;-63
2023/03/10 02:04:50;;;;;;;7.38;1.75;;;;;;;;;;4930801;28;20367;-62
2023/03/10 02:07:20;;;;;;;6.05;1.90;;;;;;;;;;4932749;28;20158;-61
2023/03/10 02:09:47;;;;;;;6.20;1.48;;;;;;;;;;4933047;28;20245;-63
2023/03/10 02:12:14;;;;;;;10.70;1.88;;;;;;;;;;4934212;28;20082;-66
2023/03/10 02:14:43;;;;;;;8.48;1.95;;;;;;;;;;4933929;28;20055;-65
2023/03/10 02:17:15;;;;;;;7.05;1.65;;;;;;;;;;4932080;28;20125;-62
2023/03/10 02:20:08;;;;;;;7.40;1.42;;;;;;;;;;4937851;28;20059;-62
2023/03/10 02:22:36;;;;;;;13.68;1.80;;;;;;;;;;4931759;28;21437;-62
2023/03/10 02:25:27;;;;;;;7.75;1.73;;;;;;;;;;4931427;28;20088;-61
2023/03/10 02:27:53;;;;;;;9.40;1.75;;;;;;;;;;4932402;28;20047;-64
2023/03/10 02:30:24;;;;;;;7.15;1.75;;;;;;;;;;4935048;28;20062;-63
2023/03/10 02:32:54;;;;;;;6.35;1.90;;;;;;;;;;4932924;28;20059;-63
2023/03/10 02:35:21;;;;;;;5.78;1.65;;;;;;;;;;4932373;28;20055;-62
2023/03/10 02:37:49;;;;;;;5.15;1.80;;;;;;;;;;4930985;28;20059;-62
2023/03/10 02:40:24;;;;;;;11.55;1.70;;;;;;;;;;4910786;28;20051;-63
2023/03/10 02:42:51;;;;;;;9.48;1.73;;;;;;;;;;4929272;28;20062;-63
2023/03/10 02:45:19;;;;;;;8.00;1.90;;;;;;;;;;4929238;28;20142;-63
2023/03/10 02:47:46;;;;;;;10.05;1.70;;;;;;;;;;4929627;28;20496;-62
2023/03/10 02:50:13;;;;;;;6.10;1.40;;;;;;;;;;4937382;28;22269;-61
2023/03/10 02:52:45;;;;;;;8.65;1.85;;;;;;;;;;4930721;28;20055;-62
2023/03/10 02:55:16;;;;;;;8.15;1.67;;;;;;;;;;4931867;28;20070;-62
2023/03/10 02:57:42;;;;;;;6.57;1.50;;;;;;;;;;4935155;28;20409;-63
2023/03/10 03:00:10;;;;;;;6.93;2.00;;;;;;;;;;4933603;28;20273;-63
2023/03/10 03:02:37;;;;;;;10.02;1.70;;;;;;;;;;4933528;28;20917;-62
2023/03/10 03:05:04;;;;;;;8.93;1.77;;;;;;;;;;4931680;28;20051;-63
2023/03/10 03:07:31;;;;;;;7.25;1.60;;;;;;;;;;4930890;28;20055;-62
2023/03/10 03:09:57;;;;;;;10.10;1.50;;;;;;;;;;4933984;28;20055;-63
2023/03/10 03:12:25;;;;;;;7.18;1.80;;;;;;;;;;4933421;28;20251;-63
2023/03/10 03:14:51;;;;;;;10.32;2.00;;;;;;;;;;4934269;28;20055;-63
2023/03/10 03:17:17;;;;;;;6.45;1.45;;;;;;;;;;4933561;28;20467;-62
2023/03/10 03:19:43;;;;;;;9.57;1.90;;;;;;;;;;4937342;28;20055;-61
2023/03/10 03:22:09;;;;;;;6.80;1.63;;;;;;;;;;4936034;28;20051;-64
2023/03/10 03:24:35;;;;;;;8.90;1.30;;;;;;;;;;4935170;28;20063;-63
2023/03/10 03:27:01;;;;;;;10.43;1.80;;;;;;;;;;4932776;28;20154;-61
2023/03/10 03:29:27;;;;;;;8.77;1.90;;;;;;;;;;4931294;28;20055;-61
2023/03/10 03:31:53;;;;;;;6.72;1.55;;;;;;;;;;4930168;28;20499;-61
2023/03/10 03:34:20;;;;;;;6.45;1.45;;;;;;;;;;4932268;28;20059;-63
2023/03/10 03:36:46;;;;;;;10.48;2.00;;;;;;;;;;4932453;28;20055;-60
2023/03/10 03:39:16;;;;;;;7.68;1.58;;;;;;;;;;4931918;28;20055;-62
2023/03/10 03:41:42;;;;;;;6.13;1.60;;;;;;;;;;4937262;28;20075;-63
2023/03/10 03:44:09;;;;;;;9.38;1.80;;;;;;;;;;4936097;28;20063;-61
2023/03/10 03:46:35;;;;;;;8.93;1.42;;;;;;;;;;4934507;28;20059;-62
2023/03/10 03:49:01;;;;;;;7.97;1.70;;;;;;;;;;4935356;28;20047;-65
2023/03/10 03:51:27;;;;;;;8.82;1.90;;;;;;;;;;4934221;28;20507;-62
2023/03/10 03:53:54;;;;;;;8.50;1.83;;;;;;;;;;4931758;28;20059;-61
2023/03/10 03:56:20;;;;;;;9.55;2.22;;;;;;;;;;4931943;28;20479;-63
2023/03/10 03:58:46;;;;;;;12.52;2.00;;;;;;;;;;4932124;28;20047;-62
2023/03/10 04:01:12;;;;;;;8.52;1.80;;;;;;;;;;4931798;28;20058;-62
2023/03/10 04:03:39;;;;;;;7.35;1.65;;;;;;;;;;4929608;28;20711;-63
2023/03/10 04:06:08;;;;;;;9.88;1.52;;;;;;;;;;4930828;28;20146;-62
2023/03/10 04:08:34;;;;;;;13.00;2.22;;;;;;;;;;4933291;28;20055;-62
2023/03/10 04:10:59;;;;;;;8.00;1.80;;;;;;;;;;4930739;28;20058;-63
2023/03/10 04:13:25;;;;;;;9.25;1.92;;;;;;;;;;4933291;28;20058;-61
2023/03/10 04:15:56;;;;;;;11.93;2.20;;;;;;;;;;4915452;28;20471;-64
2023/03/10 04:18:25;;;;;;;8.20;1.90;;;;;;;;;;4930997;28;20122;-61
2023/03/10 04:20:51;;;;;;;11.90;2.00;;;;;;;;;;4933561;28;20051;-63
2023/03/10 04:23:18;;;;;;;8.55;1.80;;;;;;;;;;4932768;28;20114;-61
2023/03/10 04:25:44;;;;;;;10.43;1.83;;;;;;;;;;4930400;28;20081;-63
2023/03/10 04:28:10;;;;;;;15.80;1.92;;;;;;;;;;4932000;28;20101;-62
2023/03/10 04:30:41;;;;;;;7.75;2.53;;;;;;;;;;4930017;28;20440;-64
2023/03/10 04:33:09;;;;;;;20.45;2.00;;;;;;;;;;4927130;28;20051;-64
2023/03/10 04:35:46;;;;;;;6.30;2.08;;;;;;;;;;4931875;28;20062;-64
2023/03/10 04:38:15;;;;;;;10.25;2.13;;;;;;;;;;4935867;28;20059;-61
2023/03/10 04:40:41;;;;;;;9.13;1.77;;;;;;;;;;4935620;28;20059;-63
2023/03/10 04:43:08;;;;;;;8.18;1.80;;;;;;;;;;4933422;28;20480;-63
2023/03/10 04:45:34;;;;;;;8.35;1.80;;;;;;;;;;4929502;28;20070;-64
2023/03/10 04:48:00;;;;;;;8.98;2.08;;;;;;;;;;4931135;28;20904;-63
2023/03/10 04:50:27;;;;;;;9.68;1.83;;;;;;;;;;4936596;28;20051;-62
2023/03/10 04:52:53;;;;;;;9.50;2.00;;;;;;;;;;4928515;28;20051;-62
2023/03/10 04:55:19;;;;;;;9.52;1.98;;;;;;;;;;4930411;28;20671;-62
2023/03/10 04:57:45;;;;;;;10.20;2.08;;;;;;;;;;4931218;28;20059;-64
2023/03/10 05:00:12;;;;;;;9.35;1.70;;;;;;;;;;4931779;28;21868;-62
2023/03/10 05:02:39;;;;;;;6.80;1.70;;;;;;;;;;4931400;28;20123;-61
2023/03/10 05:05:05;;;;;;;9.57;1.70;;;;;;;;;;4931291;28;20054;-62
2023/03/10 05:07:31;;;;;;;8.98;2.00;;;;;;;;;;4929760;28;20125;-61
2023/03/10 05:09:57;;;;;;;7.22;1.63;;;;;;;;;;4927438;28;20069;-61
2023/03/10 05:12:26;;;;;;;13.52;2.10;;;;;;;;;;4930427;28;21023;-61
2023/03/10 05:14:51;;;;;;;13.93;2.22;;;;;;;;;;4927737;28;20054;-62
2023/03/10 05:17:17;;;;;;;14.30;2.47;;;;;;;;;;4932103;28;20055;-61
2023/03/10 05:19:44;;;;;;;8.40;1.90;;;;;;;;;;4930814;28;20046;-62
2023/03/10 05:22:12;;;;;;;14.00;2.78;;;;;;;;;;4934868;28;20062;-62
2023/03/10 05:24:38;;;;;;;11.27;2.10;;;;;;;;;;4933702;28;20478;-64
2023/03/10 05:27:04;;;;;;;9.70;1.85;;;;;;;;;;4935037;28;20063;-61
2023/03/10 05:29:31;;;;;;;8.38;2.38;;;;;;;;;;4933051;28;20125;-63
2023/03/10 05:31:57;;;;;;;9.40;1.80;;;;;;;;;;4933915;28;20095;-61
2023/03/10 05:34:25;;;;;;;8.80;1.90;;;;;;;;;;4934511;28;20175;-64
2023/03/10 05:36:51;;;;;;;13.32;1.90;;;;;;;;;;4933890;28;20349;-64
2023/03/10 05:39:18;;;;;;;10.57;1.92;;;;;;;;;;4936705;28;20050;-61
2023/03/10 05:41:44;;;;;;;9.13;2.22;;;;;;;;;;4918744;28;20724;-63
2023/03/10 05:44:09;;;;;;;8.95;1.90;;;;;;;;;;4935781;28;20147;-62
2023/03/10 05:46:36;;;;;;;11.63;1.98;;;;;;;;;;4942406;28;20051;-62
2023/03/10 05:49:02;;;;;;;11.88;2.38;;;;;;;;;;4935189;28;20058;-63
2023/03/10 05:51:28;;;;;;;8.68;2.53;;;;;;;;;;4925674;28;20081;-63
2023/03/10 05:53:54;;;;;;;10.18;1.92;;;;;;;;;;4916928;28;20051;-62
2023/03/10 05:56:21;;;;;;;10.57;2.03;;;;;;;;;;4925898;28;20055;-63
2023/03/10 05:58:49;;;;;;;11.25;2.28;;;;;;;;;;4927568;28;20078;-61
2023/03/10 06:01:17;;;;;;;9.15;1.88;;;;;;;;;;4933496;28;20079;-62
2023/03/10 06:03:43;;;;;;;7.80;1.85;;;;;;;;;;4932854;28;20054;-62
2023/03/10 06:06:11;;;;;;;10.00;1.88;;;;;;;;;;4929543;28;20058;-61
2023/03/10 06:08:37;;;;;;;11.20;2.28;;;;;;;;;;4933686;28;21839;-63
2023/03/10 06:11:04;;;;;;;8.85;2.05;;;;;;;;;;4934564;28;20058;-62
2023/03/10 06:13:31;;;;;;;13.68;2.17;;;;;;;;;;4929579;28;20504;-63
2023/03/10 06:16:01;;;;;;;14.13;2.47;;;;;;;;;;4929764;28;20511;-64
2023/03/10 06:18:28;;;;;;;11.45;2.20;;;;;;;;;;4932228;28;20507;-62
2023/03/10 06:20:55;;;;;;;8.98;2.00;;;;;;;;;;4932439;28;20500;-62
2023/03/10 06:23:22;;;;;;;12.63;2.10;;;;;;;;;;4927528;28;20179;-62
2023/03/10 06:26:05;;;;;;;11.00;2.35;;;;;;;;;;4927139;28;20063;-64
2023/03/10 06:28:34;;;;;;;9.30;2.38;;;;;;;;;;4913376;28;20051;-64
2023/03/10 06:31:16;;;;;;;10.43;2.50;;;;;;;;;;4927867;28;20051;-62
2023/03/10 06:33:42;;;;;;;9.50;2.15;;;;;;;;;;4924809;28;20555;-64
2023/03/10 06:36:10;;;;;;;13.52;2.60;;;;;;;;;;4929554;28;20047;-64
2023/03/10 06:38:36;;;;;;;10.98;2.50;;;;;;;;;;4930186;28;20047;-62
2023/03/10 06:41:03;;;;;;;8.80;2.17;;;;;;;;;;4933911;28;20054;-63
2023/03/10 06:43:31;;;;;;;9.65;2.00;;;;;;;;;;4928631;28;20134;-66
2023/03/10 06:45:57;;;;;;;9.43;2.38;;;;;;;;;;4933110;28;20055;-65
2023/03/10 06:48:22;;;;;;;11.10;2.17;;;;;;;;;;4939538;28;20059;-64
2023/03/10 06:50:50;;;;;;;8.27;2.05;;;;;;;;;;4929518;28;20059;-65
2023/03/10 06:53:20;;;;;;;10.27;2.40;;;;;;;;;;4931013;28;20103;-65
2023/03/10 06:56:01;;;;;;;11.57;2.78;;;;;;;;;;4931370;28;20110;-66
2023/03/10 06:58:29;;;;;;;21.10;2.40;;;;;;;;;;4931265;28;20753;-65
2023/03/10 07:00:57;;;;;;;18.92;2.45;;;;;;;;;;4934278;28;20059;-63
2023/03/10 07:03:25;;;;;;;10.40;2.95;;;;;;;;;;4930455;28;20142;-63
2023/03/10 07:05:52;;;;;;;15.00;2.28;;;;;;;;;;4935228;28;20051;-63
2023/03/10 07:08:18;;;;;;;12.15;2.47;;;;;;;;;;4931811;28;20051;-62
2023/03/10 07:10:44;;;;;;;8.40;2.40;;;;;;;;;;4931621;28;20150;-63
2023/03/10 07:13:14;;;;;;;9.00;2.50;;;;;;;;;;4933493;28;20274;-65
2023/03/10 07:15:47;;;;;;;9.65;2.22;;;;;;;;;;4928164;28;20526;-66
2023/03/10 07:18:16;;;;;;;11.00;2.72;;;;;;;;;;4931012;28;20051;-66
2023/03/10 07:20:44;;;;;;;13.70;2.28;;;;;;;;;;4932719;28;20137;-64
2023/03/10 07:23:11;;;;;;;11.10;2.60;;;;;;;;;;4931834;28;20055;-66
2023/03/10 07:25:38;;;;;;;14.32;2.45;;;;;;;;;;4927228;28;20066;-63
2023/03/10 07:28:04;;;;;;;9.60;2.50;;;;;;;;;;4930775;28;20157;-64
2023/03/10 07:30:32;;;;;;;10.48;2.67;;;;;;;;;;4932218;28;20112;-63
2023/03/10 07:32:57;;;;;;;14.32;2.67;;;;;;;;;;4931877;28;20178;-63
2023/03/10 07:35:24;;;;;;;9.40;2.20;;;;;;;;;;4930935;28;20047;-64
2023/03/10 07:37:58;;;;;;;12.45;2.70;;;;;;;;;;4930306;28;20479;-62
2023/03/10 07:40:24;;;;;;;9.55;2.88;;;;;;;;;;4935619;28;20051;-65
2023/03/10 07:42:53;;;;;;;9.82;2.40;;;;;;;;;;4928720;28;20059;-63
2023/03/10 07:45:23;;;;;;;12.88;2.70;;;;;;;;;;4928577;28;20059;-64
2023/03/10 07:47:51;;;;;;;13.18;2.55;;;;;;;;;;4942812;28;20066;-66
2023/03/10 07:50:18;;;;;;;9.35;3.20;;;;;;;;;;4948969;28;20043;-63
2023/03/10 07:52:44;;;;;;;23.02;3.03;;;;;;;;;;4936950;28;20610;-65
2023/03/10 07:55:11;;;;;;;9.30;2.80;;;;;;;;;;4927055;28;20065;-64
2023/03/10 07:57:38;;;;;;;13.18;3.13;;;;;;;;;;4931391;28;20206;-64
2023/03/10 08:00:07;;;;;;;11.93;2.90;;;;;;;;;;4928875;28;20155;-66
2023/03/10 08:02:33;;;;;;;10.55;3.08;;;;;;;;;;4912371;28;20274;-64
2023/03/10 08:04:59;;;;;;;15.95;2.95;;;;;;;;;;4928183;28;20123;-66
2023/03/10 08:07:26;;;;;;;13.65;3.15;;;;;;;;;;4911008;28;20059;-65
2023/03/10 08:09:53;;;;;;;14.02;3.60;;;;;;;;;;4930816;28;20055;-65
2023/03/10 08:12:25;;;;;;;14.23;3.83;;;;;;;;;;4932940;28;20058;-65
2023/03/10 08:14:54;;;;;;;17.35;3.63;;;;;;;;;;4912566;28;20062;-65
2023/03/10 08:17:20;;;;;;;16.73;3.85;;;;;;;;;;4932445;28;20400;-62
2023/03/10 08:19:47;;;;;;;13.07;3.28;;;;;;;;;;4927247;28;21032;-63
2023/03/10 08:22:13;;;;;;;11.38;2.70;;;;;;;;;;4927808;28;20141;-63
2023/03/10 08:24:39;;;;;;;8.52;2.05;;;;;;;;;;4927107;28;20066;-62
2023/03/10 08:27:05;;;;;;;12.27;2.85;;;;;;;;;;4930024;28;20047;-62
2023/03/10 08:29:31;;;;;;;14.82;3.75;;;;;;;;;;4930526;28;20493;-64
2023/03/10 08:31:57;;;;;;;10.68;2.90;;;;;;;;;;4931244;28;20051;-64
2023/03/10 08:34:23;;;;;;;17.35;3.10;;;;;;;;;;4928844;28;20579;-64
2023/03/10 08:36:50;;;;;;;11.68;2.17;;;;;;;;;;4930437;28;20242;-63
2023/03/10 08:39:57;;;;;;;11.68;2.80;;;;;;;;;;4928773;28;20055;-62
2023/03/10 08:43:37;;;;;;;10.50;2.70;;;;;;;;;;4926853;28;20051;-64
2023/03/10 08:47:17;;;;;;;13.38;2.45;;;;;;;;;;4929064;28;20145;-63
2023/03/10 08:50:59;;;;;;;12.00;2.42;;;;;;;;;;4935541;28;20139;-64
2023/03/10 08:54:20;;;;;;;13.18;2.53;;;;;;;;;;4926471;28;22066;-65
2023/03/10 08:57:26;;;;;;;12.63;2.47;;;;;;;;;;4929106;28;20535;-66
2023/03/10 09:01:07;;;;;;;7.60;1.83;;;;;;;;;;4929865;28;20385;-65
2023/03/10 09:04:47;;;;;;;7.88;2.28;;;;;;;;;;4929714;28;20061;-64
2023/03/10 09:08:28;;;;;;;10.10;2.30;;;;;;;;;;4926289;28;20086;-67
2023/03/10 09:12:09;;;;;;;9.45;2.20;;;;;;;;;;4926649;28;20057;-66
2023/03/10 09:15:51;;;;;;;12.95;2.60;;;;;;;;;;4930127;28;20422;-64
2023/03/10 09:19:30;;;;;;;19.05;2.60;;;;;;;;;;4930852;28;20051;-62
2023/03/10 09:23:10;;;;;;;9.77;2.13;;;;;;;;;;4934470;28;20073;-64
2023/03/10 09:26:51;;;;;;;7.47;2.00;;;;;;;;;;4932841;28;20489;-66
2023/03/10 09:30:36;;;;;;;9.98;2.25;;;;;;;;;;4930711;28;20098;-65
2023/03/10 09:34:13;;;;;;;9.20;1.98;;;;;;;;;;4928957;28;20134;-65
2023/03/10 09:37:53;;;;;;;8.50;2.15;;;;;;;;;;4933432;28;20255;-65
2023/03/10 09:42:01;;;;;;;10.57;2.58;;;;;;;;;;4930800;28;20632;-67
2023/03/10 09:45:33;;;;;;;;;;;;;;;;;;4932847;28;20051;-67
2023/03/10 09:48:52;;;;;;;9.50;1.98;;;;;;;;;;4908025;29;20123;-63
2023/03/10 09:51:23;;;;;;;;;;;;;;;;;;4908234;29;20063;-65
2023/03/10 09:54:13;;;;;;;12.30;2.38;;;;;;;;;;4906483;29;20075;-65
2023/03/10 09:56:41;;;;;;;12.32;2.25;;;;;;;;;;4903659;29;20059;-63
2023/03/10 09:59:20;;;;;;;7.28;2.22;;;;;;;;;;4903263;29;20759;-64
2023/03/10 10:01:51;;;;;;;9.70;2.28;;;;;;;;;;4904735;29;20223;-64
2023/03/10 10:04:35;;;;;;;6.78;1.92;;;;;;;;;;4903900;29;20127;-71
2023/03/10 10:07:12;;;;;;;8.95;2.25;;;;;;;;;;4905444;29;20444;-66
2023/03/10 10:10:06;;;;;;;9.23;2.17;;;;;;;;;;4908484;29;20063;-65
2023/03/10 10:12:32;;;;;;;7.18;1.70;;;;;;;;;;4906120;29;20175;-65
2023/03/10 10:15:12;;;;;;;6.78;1.70;;;;;;;;;;4911130;29;20052;-65
2023/03/10 10:18:04;;;;;;;11.27;2.00;;;;;;;;;;4908771;29;20273;-63
2023/03/10 10:20:41;;;;;;;7.50;1.70;;;;;;;;;;4907451;29;20143;-67
2023/03/10 10:23:36;;;;;;;7.68;2.00;;;;;;;;;;4899746;28;20671;-64
2023/03/10 10:26:11;;;;;;;6.68;1.73;;;;;;;;;;4931553;28;20120;-63
2023/03/10 10:28:54;;;;;;;6.13;1.90;;;;;;;;;;4930530;28;20516;-63
2023/03/10 10:31:28;;;;;;;6.80;1.88;;;;;;;;;;4914750;28;20455;-63
2023/03/10 10:34:06;;;;;;;4.95;1.65;;;;;;;;;;4932171;28;20089;-65
2023/03/10 10:36:35;;;;;;;7.20;2.00;;;;;;;;;;4931538;28;20678;-65
2023/03/10 10:39:09;;;;;;;14.27;1.98;;;;;;;;;;4933907;28;20530;-67
2023/03/10 10:41:36;;;;;;;8.80;1.70;;;;;;;;;;4935184;28;20356;-63
2023/03/10 10:44:13;;;;;;;6.65;1.52;;;;;;;;;;4935733;28;20685;-64
2023/03/10 10:46:53;;;;;;;9.77;2.30;;;;;;;;;;4933920;28;20637;-64
2023/03/10 10:49:25;;;;;;;9.68;2.25;;;;;;;;;;4934427;28;20055;-64
2023/03/10 10:52:01;;;;;;;9.63;3.00;;;;;;;;;;4933239;28;20408;-64
2023/03/10 10:54:34;;;;;;;6.55;1.83;;;;;;;;;;4930584;28;20511;-64
2023/03/10 10:57:01;;;;;;;8.68;2.05;;;;;;;;;;4930741;28;20115;-63
2023/03/10 10:59:33;;;;;;;9.55;1.98;;;;;;;;;;4930314;28;20043;-64
2023/03/10 11:02:02;;;;;;;7.65;1.88;;;;;;;;;;4931900;28;20052;-63
2023/03/10 11:04:44;;;;;;;6.97;2.00;;;;;;;;;;4933411;28;21658;-64
2023/03/10 11:07:23;;;;;;;7.80;1.85;;;;;;;;;;4932470;28;20047;-64
2023/03/10 11:09:49;;;;;;;8.15;1.90;;;;;;;;;;4933858;28;20066;-63
2023/03/10 11:12:24;;;;;;;8.13;1.63;;;;;;;;;;4932664;28;20115;-65
2023/03/10 11:14:56;;;;;;;5.68;1.35;;;;;;;;;;4933768;28;20055;-64
2023/03/10 11:17:38;;;;;;;6.60;1.85;;;;;;;;;;4933448;28;20116;-64
2023/03/10 11:20:28;;;;;;;8.45;2.00;;;;;;;;;;4933606;28;20040;-65
2023/03/10 11:23:21;;;;;;;7.03;1.58;;;;;;;;;;4933947;28;20420;-63
2023/03/10 11:25:51;;;;;;;10.48;1.90;;;;;;;;;;4914658;28;20059;-64
2023/03/10 11:28:45;;;;;;;4.70;1.80;;;;;;;;;;4932769;28;20055;-63
2023/03/10 11:31:30;;;;;;;7.97;1.73;;;;;;;;;;4931462;28;20287;-65
2023/03/10 11:34:24;;;;;;;6.68;1.45;;;;;;;;;;4933657;28;20059;-64
2023/03/10 11:36:53;;;;;;;5.07;1.52;;;;;;;;;;4928459;28;22436;-63
2023/03/10 11:39:50;;;;;;;7.20;1.70;;;;;;;;;;4932509;28;20141;-63
2023/03/10 11:42:19;;;;;;;8.32;1.88;;;;;;;;;;4934370;28;20074;-65
2023/03/10 11:45:11;;;;;;;6.82;1.70;;;;;;;;;;4931944;28;21173;-64
2023/03/10 11:48:00;;;;;;;5.50;1.40;;;;;;;;;;4936960;28;20054;-64
2023/03/10 11:50:53;;;;;;;6.38;1.90;;;;;;;;;;4930370;28;20054;-65
2023/03/10 11:53:38;;;;;;;7.20;1.60;;;;;;;;;;4927153;28;20051;-67
2023/03/10 11:56:07;;;;;;;9.93;1.60;;;;;;;;;;4929890;28;20063;-65
2023/03/10 11:58:52;;;;;;;5.55;1.88;;;;;;;;;;4929801;28;20043;-66
2023/03/10 12:01:31;;;;;;;5.25;1.50;;;;;;;;;;4931432;28;20080;-64
2023/03/10 12:04:08;;;;;;;5.47;1.40;;;;;;;;;;4929707;28;20059;-63
2023/03/10 12:06:41;;;;;;;5.82;1.50;;;;;;;;;;4929430;28;20055;-63
2023/03/10 12:09:17;;;;;;;6.57;1.80;;;;;;;;;;4930069;28;20074;-65
2023/03/10 12:11:43;;;;;;;5.63;1.58;;;;;;;;;;4931059;28;20467;-66
2023/03/10 12:14:12;;;;;;;7.38;1.55;;;;;;;;;;4930069;28;20063;-63
2023/03/10 12:16:40;;;;;;;7.10;1.83;;;;;;;;;;4927597;28;20050;-67
2023/03/10 12:19:07;;;;;;;5.05;1.50;;;;;;;;;;4931175;28;20063;-67
2023/03/10 12:21:33;;;;;;;8.77;1.98;;;;;;;;;;4929802;28;20935;-64
2023/03/10 12:24:02;;;;;;;13.60;1.92;;;;;;;;;;4929150;28;20063;-64
2023/03/10 12:26:37;;;;;;;7.57;2.40;;;;;;;;;;4931591;28;20043;-65
2023/03/10 12:29:27;;;;;;;5.60;1.90;;;;;;;;;;4929571;28;20062;-66
2023/03/10 12:31:55;;;;;;;10.73;2.08;;;;;;;;;;4931895;28;20051;-66
2023/03/10 12:34:27;;;;;;;12.32;1.95;;;;;;;;;;4928223;28;20054;-63
2023/03/10 12:37:20;;;;;;;8.77;2.45;;;;;;;;;;4930476;28;20051;-64
2023/03/10 12:39:46;;;;;;;8.60;2.00;;;;;;;;;;4931131;28;20059;-64
2023/03/10 12:42:33;;;;;;;7.85;2.10;;;;;;;;;;4913286;28;20118;-64
2023/03/10 12:45:16;;;;;;;12.13;2.13;;;;;;;;;;4928742;28;20047;-66
2023/03/10 12:47:53;;;;;;;11.35;2.10;;;;;;;;;;4928800;28;20049;-65
2023/03/10 12:50:45;;;;;;;12.63;2.08;;;;;;;;;;4935505;28;20617;-66
2023/03/10 12:53:59;;;;;;;8.98;2.05;;;;;;;;;;4929511;28;20071;-64
2023/03/10 12:56:38;;;;;;;8.65;2.08;;;;;;;;;;4870425;29;20067;-65
2023/03/10 12:59:20;;;;;;;10.43;2.20;;;;;;;;;;4870831;29;20079;-65
2023/03/10 13:01:48;;;;;;;15.67;2.23;;;;;;;;;;4870574;29;20052;-66
2023/03/10 13:04:20;;;;;;;9.63;2.42;;;;;;;;;;4869623;29;20295;-63
2023/03/10 13:06:47;;;;;;;7.80;2.25;;;;;;;;;;4869469;29;20115;-62
2023/03/10 13:09:31;;;;;;;6.88;1.83;;;;;;;;;;4867808;29;20048;-64
2023/03/10 13:12:13;;;;;;;10.33;2.10;;;;;;;;;;4854367;29;20048;-62
2023/03/10 13:14:41;;;;;;;7.43;2.13;;;;;;;;;;4871004;29;20215;-63
2023/03/10 13:17:21;;;;;;;6.97;1.95;;;;;;;;;;4871587;29;20172;-66
2023/03/10 13:20:18;;;;;;;8.38;1.77;;;;;;;;;;4855209;29;20057;-64
2023/03/10 13:22:56;;;;;;;10.10;2.03;;;;;;;;;;4869880;29;20547;-66
2023/03/10 13:25:22;;;;;;;12.85;2.08;;;;;;;;;;4868596;29;20490;-63
2023/03/10 13:27:48;;;;;;;7.63;2.13;;;;;;;;;;4914464;28;20047;-69
2023/03/10 13:30:20;;;;;;;9.98;1.85;;;;;;;;;;4930399;28;20258;-67
2023/03/10 13:32:58;;;;;;;7.57;2.30;;;;;;;;;;4928991;28;20114;-67
2023/03/10 13:35:30;;;;;;;9.60;2.20;;;;;;;;;;4931533;28;20070;-64
2023/03/10 13:38:20;;;;;;;7.80;2.10;;;;;;;;;;4925040;28;20234;-67
2023/03/10 13:40:55;;;;;;;7.35;1.83;;;;;;;;;;4932467;28;20047;-66
2023/03/10 13:43:36;;;;;;;12.98;2.15;;;;;;;;;;4929900;28;20062;-65
2023/03/10 13:46:28;;;;;;;10.60;2.10;;;;;;;;;;4935615;28;20059;-64
2023/03/10 13:49:02;;;;;;;11.82;2.72;;;;;;;;;;4928495;28;20051;-66
2023/03/10 13:51:34;;;;;;;9.45;2.15;;;;;;;;;;4932580;28;20164;-66
2023/03/10 13:54:21;;;;;;;6.90;2.13;;;;;;;;;;4931300;28;20062;-65
2023/03/10 13:56:51;;;;;;;8.43;2.00;;;;;;;;;;4932218;28;20051;-67
2023/03/10 13:59:24;;;;;;;9.57;1.90;;;;;;;;;;4929415;28;20559;-63
2023/03/10 14:01:54;;;;;;;13.20;2.20;;;;;;;;;;4932407;28;20062;-67
2023/03/10 14:04:41;;;;;;;9.50;2.25;;;;;;;;;;4930048;28;20114;-65
2023/03/10 14:07:18;;;;;;;9.80;2.05;;;;;;;;;;4933754;28;20055;-65
2023/03/10 14:10:10;;;;;;;10.88;2.05;;;;;;;;;;4933428;28;20558;-67
2023/03/10 14:12:43;;;;;;;7.68;2.17;;;;;;;;;;4928326;28;20714;-67
2023/03/10 14:15:37;;;;;;;13.00;2.25;;;;;;;;;;4934153;28;20058;-66
2023/03/10 14:18:06;;;;;;;7.90;1.80;;;;;;;;;;4931854;28;20059;-63
2023/03/10 14:20:43;;;;;;;12.93;2.45;;;;;;;;;;4931700;28;20459;-66
2023/03/10 14:23:18;;;;;;;6.05;1.77;;;;;;;;;;4932765;28;20055;-65
2023/03/10 14:25:45;;;;;;;7.75;1.85;;;;;;;;;;4934011;28;20097;-66
2023/03/10 14:28:32;;;;;;;12.27;1.92;;;;;;;;;;4933862;28;20059;-67
2023/03/10 14:31:01;;;;;;;8.60;2.15;;;;;;;;;;4931988;28;20055;-66
2023/03/10 14:33:27;;;;;;;8.27;1.92;;;;;;;;;;4932945;28;20142;-66
2023/03/10 14:35:55;;;;;;;9.75;2.30;;;;;;;;;;4933101;28;20625;-65
2023/03/10 14:38:22;;;;;;;5.85;2.25;;;;;;;;;;4930673;28;20460;-65
2023/03/10 14:40:51;;;;;;;11.93;2.30;;;;;;;;;;4934818;28;20074;-66
2023/03/10 14:43:24;;;;;;;8.38;2.10;;;;;;;;;;4932322;28;20055;-66
2023/03/10 14:45:52;;;;;;;23.05;2.05;;;;;;;;;;4932877;28;20050;-66
2023/03/10 14:48:40;;;;;;;6.65;1.80;;;;;;;;;;4931904;28;20057;-67
2023/03/10 14:51:16;;;;;;;7.15;1.80;;;;;;;;;;4937555;28;20051;-67
2023/03/10 14:53:42;;;;;;;6.38;1.80;;;;;;;;;;4931423;28;20086;-66
2023/03/10 14:56:14;;;;;;;6.93;2.17;;;;;;;;;;4934355;28;21884;-65
2023/03/10 14:58:52;;;;;;;4.63;1.90;;;;;;;;;;4932335;28;20055;-70
2023/03/10 15:01:20;;;;;;;12.13;2.15;;;;;;;;;;4914387;28;20043;-66
2023/03/10 15:03:48;;;;;;;6.32;1.70;;;;;;;;;;4934850;28;20047;-67
2023/03/10 15:06:17;;;;;;;7.47;1.80;;;;;;;;;;4935632;28;20051;-65
2023/03/10 15:08:43;;;;;;;5.50;1.50;;;;;;;;;;4934790;28;20174;-64
2023/03/10 15:11:09;;;;;;;6.18;1.70;;;;;;;;;;4930352;28;20066;-63
2023/03/10 15:13:36;;;;;;;6.50;1.60;;;;;;;;;;4934686;28;20887;-64
2023/03/10 15:16:04;;;;;;;4.40;1.50;;;;;;;;;;4933115;28;20066;-67
2023/03/10 15:18:30;;;;;;;6.78;1.70;;;;;;;;;;4931715;28;20150;-65
2023/03/10 15:20:59;;;;;;;9.93;2.10;;;;;;;;;;4929980;28;20062;-65
2023/03/10 15:23:26;;;;;;;5.68;1.60;;;;;;;;;;4933449;28;20078;-65